Time,TemperatureF,DewpointF,PressureIn,WindDirection,WindDirectionDegrees,WindSpeedMPH,WindSpeedGustMPH,Humidity,HourlyPrecipIn,Conditions,Clouds,dailyrainin,SoftwareType,DateUTC
2013-05-22 00:09:00,60.9,59.0,29.98,NE,50,0.0,1.0,93,0.01,,,0.01,weatherlink.com 1.10,2013-05-22 04:09:00,
2013-05-22 00:24:00,60.9,59.0,29.98,NE,50,0.0,1.0,94,0.02,,,0.02,weatherlink.com 1.10,2013-05-22 04:24:00,
2013-05-22 00:39:00,60.7,59.0,29.98,NE,50,0.0,1.0,94,0.03,,,0.03,weatherlink.com 1.10,2013-05-22 04:39:00,
2013-05-22 00:54:00,60.7,59.0,29.97,NE,50,0.0,0.0,95,0.04,,,0.04,weatherlink.com 1.10,2013-05-22 04:54:00,
2013-05-22 01:09:00,60.5,59.0,29.96,NE,50,0.0,0.0,95,0.04,,,0.05,weatherlink.com 1.10,2013-05-22 05:09:00,
2013-05-22 01:24:00,60.4,59.0,29.94,NE,50,0.0,0.0,95,0.04,,,0.06,weatherlink.com 1.10,2013-05-22 05:24:00,
2013-05-22 01:39:00,60.2,59.0,29.94,NE,50,0.0,0.0,95,0.04,,,0.07,weatherlink.com 1.10,2013-05-22 05:39:00,
2013-05-22 01:54:00,59.9,59.0,29.94,NE,50,0.0,0.0,95,0.04,,,0.08,weatherlink.com 1.10,2013-05-22 05:54:00,
2013-05-22 02:09:00,59.6,58.0,29.93,NE,50,0.0,0.0,95,0.04,,,0.09,weatherlink.com 1.10,2013-05-22 06:09:00,
2013-05-22 02:24:00,59.2,58.0,29.92,NE,50,0.0,1.0,95,0.04,,,0.10,weatherlink.com 1.10,2013-05-22 06:24:00,
2013-05-22 02:40:00,58.8,57.0,29.92,NE,50,0.0,1.0,95,0.02,,,0.10,weatherlink.com 1.10,2013-05-22 06:40:00,
2013-05-22 02:54:00,58.5,57.0,29.92,NE,50,0.0,2.0,96,0.02,,,0.10,weatherlink.com 1.10,2013-05-22 06:54:00,
2013-05-22 03:09:00,58.2,57.0,29.91,NE,50,0.0,0.0,95,0.01,,,0.10,weatherlink.com 1.10,2013-05-22 07:09:00,
2013-05-22 03:24:00,57.9,57.0,29.91,NE,50,0.0,0.0,96,0.00,,,0.10,weatherlink.com 1.10,2013-05-22 07:24:00,
2013-05-22 03:39:00,57.5,56.0,29.90,NE,50,0.0,0.0,96,0.00,,,0.10,weatherlink.com 1.10,2013-05-22 07:39:00,
2013-05-22 03:54:00,57.1,56.0,29.90,NE,50,0.0,0.0,96,0.00,,,0.10,weatherlink.com 1.10,2013-05-22 07:54:00,
2013-05-22 04:09:00,57.1,56.0,29.90,NE,50,0.0,0.0,96,0.00,,,0.10,weatherlink.com 1.10,2013-05-22 08:09:00,
2013-05-22 04:24:00,56.7,56.0,29.89,NE,50,0.0,0.0,96,0.00,,,0.00,weatherlink.com 1.10,2013-05-22 08:24:00,
2013-05-22 04:39:00,56.3,55.0,29.90,NE,50,0.0,0.0,96,0.00,,,0.00,weatherlink.com 1.10,2013-05-22 08:39:00,
2013-05-22 04:54:00,56.0,55.0,29.90,NE,50,0.0,0.0,96,0.00,,,0.00,weatherlink.com 1.10,2013-05-22 08:54:00,
2013-05-22 05:09:00,56.2,55.0,29.90,NE,50,0.0,0.0,96,0.00,,,0.00,weatherlink.com 1.10,2013-05-22 09:09:00,
2013-05-22 05:24:00,56.3,56.0,29.90,NE,50,0.0,1.0,97,0.00,,,0.00,weatherlink.com 1.10,2013-05-22 09:24:00,
2013-05-22 05:39:00,56.2,55.0,29.90,NE,50,0.0,2.0,97,0.00,,,0.00,weatherlink.com 1.10,2013-05-22 09:39:00,
2013-05-22 05:54:00,56.1,55.0,29.90,NE,50,1.0,1.0,96,0.00,,,0.00,weatherlink.com 1.10,2013-05-22 09:54:00,
2013-05-22 06:09:00,56.0,55.0,29.91,NE,50,0.0,0.0,96,0.00,,,0.00,weatherlink.com 1.10,2013-05-22 10:09:00,
2013-05-22 06:24:00,56.0,55.0,29.91,NE,50,0.0,2.0,97,0.00,,,0.00,weatherlink.com 1.10,2013-05-22 10:24:00,
2013-05-22 06:39:00,56.1,55.0,29.92,East,87,0.0,3.0,97,0.00,,,0.00,weatherlink.com 1.10,2013-05-22 10:39:00,
2013-05-22 06:54:00,56.1,55.0,29.93,East,80,0.0,2.0,97,0.00,,,0.00,weatherlink.com 1.10,2013-05-22 10:54:00,
2013-05-22 07:09:00,56.3,56.0,29.93,East,80,0.0,1.0,97,0.00,,,0.00,weatherlink.com 1.10,2013-05-22 11:09:00,
2013-05-22 07:24:00,56.4,56.0,29.93,East,80,0.0,2.0,97,0.00,,,0.00,weatherlink.com 1.10,2013-05-22 11:24:00,
2013-05-22 07:39:00,56.6,56.0,29.94,East,80,0.0,1.0,97,0.00,,,0.00,weatherlink.com 1.10,2013-05-22 11:39:00,
2013-05-22 07:54:00,57.1,56.0,29.94,East,80,0.0,2.0,97,0.00,,,0.00,weatherlink.com 1.10,2013-05-22 11:54:00,
2013-05-22 08:09:00,57.6,57.0,29.94,East,80,0.0,1.0,97,0.00,,,0.00,weatherlink.com 1.10,2013-05-22 12:09:00,
2013-05-22 08:24:00,58.2,57.0,29.94,East,80,0.0,0.0,97,0.00,,,0.00,weatherlink.com 1.10,2013-05-22 12:24:00,
2013-05-22 08:39:00,59.0,58.0,29.94,WSW,243,0.0,2.0,97,0.00,,,0.00,weatherlink.com 1.10,2013-05-22 12:39:00,
2013-05-22 08:54:00,61.3,61.0,29.94,WSW,241,0.0,0.0,97,0.00,,,0.00,weatherlink.com 1.10,2013-05-22 12:54:00,
2013-05-22 09:09:00,63.4,63.0,29.94,WSW,241,0.0,0.0,98,0.00,,,0.00,weatherlink.com 1.10,2013-05-22 13:09:00,
2013-05-22 09:25:00,65.2,65.0,29.93,WSW,241,0.0,0.0,98,0.00,,,0.00,weatherlink.com 1.10,2013-05-22 13:25:00,
2013-05-22 09:40:00,67.6,67.0,29.93,WSW,241,0.0,0.0,97,0.00,,,0.00,weatherlink.com 1.10,2013-05-22 13:40:00,
2013-05-22 09:55:00,70.9,67.0,29.93,WSW,240,0.0,0.0,88,0.00,,,0.00,weatherlink.com 1.10,2013-05-22 13:55:00,
2013-05-22 10:10:00,72.9,67.0,29.92,WSW,239,0.0,0.0,82,0.00,,,0.00,weatherlink.com 1.10,2013-05-22 14:10:00,
2013-05-22 10:25:00,75.0,68.0,29.92,WSW,239,0.0,0.0,78,0.01,,,0.01,weatherlink.com 1.10,2013-05-22 14:25:00,
2013-05-22 10:40:00,77.2,67.0,29.91,East,84,1.0,2.0,71,0.01,,,0.01,weatherlink.com 1.10,2013-05-22 14:40:00,
2013-05-22 10:55:00,78.0,63.0,29.91,WSW,258,2.0,4.0,60,0.01,,,0.01,weatherlink.com 1.10,2013-05-22 14:55:00,
2013-05-22 11:10:00,77.9,64.0,29.91,WSW,254,1.0,5.0,63,0.01,,,0.01,weatherlink.com 1.10,2013-05-22 15:10:00,
2013-05-22 11:25:00,79.8,66.0,29.91,WSW,243,0.0,3.0,62,0.00,,,0.01,weatherlink.com 1.10,2013-05-22 15:25:00,
2013-05-22 11:40:00,80.7,66.0,29.91,SSW,201,0.0,3.0,62,0.00,,,0.01,weatherlink.com 1.10,2013-05-22 15:40:00,
2013-05-22 11:55:00,80.7,66.0,29.90,SSW,204,1.0,4.0,61,0.00,,,0.01,weatherlink.com 1.10,2013-05-22 15:55:00,
2013-05-22 12:10:00,80.8,68.0,29.89,WSW,252,0.0,4.0,66,0.00,,,0.01,weatherlink.com 1.10,2013-05-22 16:10:00,
2013-05-22 12:25:00,80.3,69.0,29.89,West,279,0.0,9.0,68,0.00,,,0.01,weatherlink.com 1.10,2013-05-22 16:25:00,
2013-05-22 12:40:00,80.3,67.0,29.89,SW,218,1.0,6.0,65,0.00,,,0.01,weatherlink.com 1.10,2013-05-22 16:40:00,
2013-05-22 12:55:00,79.1,66.0,29.89,SW,220,1.0,4.0,65,0.00,,,0.01,weatherlink.com 1.10,2013-05-22 16:55:00,
2013-05-22 13:10:00,78.2,65.0,29.88,SW,225,3.0,4.0,64,0.00,,,0.01,weatherlink.com 1.10,2013-05-22 17:10:00,
2013-05-22 13:25:00,75.7,60.0,29.89,WSW,253,2.0,8.0,58,0.00,,,0.01,weatherlink.com 1.10,2013-05-22 17:25:00,
2013-05-22 13:41:00,71.0,59.0,29.91,WNW,282,1.0,5.0,67,0.00,,,0.01,weatherlink.com 1.10,2013-05-22 17:41:00,
2013-05-22 13:55:00,66.9,61.0,29.91,WSW,240,0.0,1.0,81,0.00,,,0.01,weatherlink.com 1.10,2013-05-22 17:55:00,
2013-05-22 14:10:00,65.8,62.0,29.91,WSW,240,0.0,2.0,87,0.00,,,0.01,weatherlink.com 1.10,2013-05-22 18:10:00,
2013-05-22 14:25:00,66.1,62.0,29.91,WSW,242,0.0,2.0,87,0.00,,,0.01,weatherlink.com 1.10,2013-05-22 18:25:00,
2013-05-22 14:40:00,66.4,62.0,29.89,WSW,242,1.0,3.0,84,0.00,,,0.01,weatherlink.com 1.10,2013-05-22 18:40:00,
2013-05-22 14:55:00,65.7,62.0,29.92,West,270,2.0,9.0,86,0.00,,,0.01,weatherlink.com 1.10,2013-05-22 18:55:00,
2013-05-22 15:10:00,65.4,61.0,29.91,NE,52,1.0,2.0,85,0.00,,,0.01,weatherlink.com 1.10,2013-05-22 19:10:00,
2013-05-22 15:25:00,64.8,60.0,29.91,WSW,247,0.0,3.0,84,0.00,,,0.01,weatherlink.com 1.10,2013-05-22 19:25:00,
2013-05-22 15:40:00,63.8,60.0,29.88,WSW,254,0.0,6.0,87,0.01,,,0.02,weatherlink.com 1.10,2013-05-22 19:40:00,
2013-05-22 15:55:00,65.2,61.0,29.86,WNW,296,0.0,3.0,85,0.01,,,0.02,weatherlink.com 1.10,2013-05-22 19:55:00,
2013-05-22 16:10:00,67.7,61.0,29.86,NE,55,1.0,5.0,80,0.01,,,0.02,weatherlink.com 1.10,2013-05-22 20:10:00,
2013-05-22 16:25:00,69.0,62.0,29.87,NE,51,0.0,3.0,77,0.01,,,0.02,weatherlink.com 1.10,2013-05-22 20:25:00,
2013-05-22 16:40:00,68.3,61.0,29.87,NE,42,0.0,2.0,78,0.00,,,0.02,weatherlink.com 1.10,2013-05-22 20:40:00,
2013-05-22 16:55:00,68.8,61.0,29.87,NE,49,1.0,2.0,75,0.01,,,0.03,weatherlink.com 1.10,2013-05-22 20:55:00,
2013-05-22 17:10:00,69.4,60.0,29.87,WSW,252,2.0,5.0,73,0.01,,,0.03,weatherlink.com 1.10,2013-05-22 21:10:00,
2013-05-22 17:26:00,69.2,61.0,29.87,West,273,2.0,5.0,74,0.01,,,0.03,weatherlink.com 1.10,2013-05-22 21:26:00,
2013-05-22 17:40:00,68.6,61.0,29.87,West,275,2.0,4.0,76,0.01,,,0.03,weatherlink.com 1.10,2013-05-22 21:40:00,
2013-05-22 17:55:00,67.6,61.0,29.88,WNW,286,2.0,4.0,78,0.00,,,0.03,weatherlink.com 1.10,2013-05-22 21:55:00,
2013-05-22 18:10:00,66.9,61.0,29.89,West,261,1.0,9.0,80,0.00,,,0.03,weatherlink.com 1.10,2013-05-22 22:10:00,
2013-05-22 18:25:00,66.3,60.0,29.89,SW,231,0.0,3.0,81,0.00,,,0.03,weatherlink.com 1.10,2013-05-22 22:25:00,
2013-05-22 18:40:00,65.7,61.0,29.90,East,90,1.0,3.0,85,0.00,,,0.03,weatherlink.com 1.10,2013-05-22 22:40:00,
2013-05-22 18:55:00,64.6,61.0,29.91,ENE,62,0.0,5.0,88,0.00,,,0.03,weatherlink.com 1.10,2013-05-22 22:55:00,
2013-05-22 19:10:00,63.5,61.0,29.91,ENE,62,0.0,1.0,92,0.00,,,0.03,weatherlink.com 1.10,2013-05-22 23:10:00,
2013-05-22 19:25:00,62.9,61.0,29.90,ENE,62,0.0,2.0,92,0.01,,,0.04,weatherlink.com 1.10,2013-05-22 23:25:00,
2013-05-22 19:40:00,62.4,60.0,29.91,ENE,62,1.0,2.0,93,0.01,,,0.04,weatherlink.com 1.10,2013-05-22 23:40:00,
2013-05-22 19:55:00,61.9,60.0,29.90,ENE,62,0.0,1.0,94,0.01,,,0.04,weatherlink.com 1.10,2013-05-22 23:55:00,
2013-05-22 20:10:00,61.8,60.0,29.90,ENE,62,0.0,1.0,94,0.02,,,0.05,weatherlink.com 1.10,2013-05-23 00:10:00,
2013-05-22 20:25:00,61.2,60.0,29.90,ENE,62,0.0,2.0,94,0.01,,,0.05,weatherlink.com 1.10,2013-05-23 00:25:00,
2013-05-22 20:40:00,60.7,59.0,29.91,ENE,62,0.0,1.0,94,0.01,,,0.05,weatherlink.com 1.10,2013-05-23 00:40:00,
2013-05-22 20:55:00,60.3,59.0,29.90,ENE,62,0.0,1.0,95,0.02,,,0.06,weatherlink.com 1.10,2013-05-23 00:55:00,
2013-05-22 21:11:00,60.0,59.0,29.91,ENE,62,0.0,1.0,95,0.01,,,0.06,weatherlink.com 1.10,2013-05-23 01:11:00,
2013-05-22 21:25:00,59.7,58.0,29.92,ENE,62,0.0,2.0,95,0.01,,,0.06,weatherlink.com 1.10,2013-05-23 01:25:00,
2013-05-22 21:40:00,59.5,58.0,29.93,ENE,62,1.0,1.0,95,0.02,,,0.07,weatherlink.com 1.10,2013-05-23 01:40:00,
2013-05-22 21:56:00,59.3,58.0,29.94,ENE,67,0.0,1.0,95,0.01,,,0.07,weatherlink.com 1.10,2013-05-23 01:56:00,
2013-05-22 22:11:00,59.1,58.0,29.93,ENE,67,0.0,1.0,96,0.02,,,0.08,weatherlink.com 1.10,2013-05-23 02:11:00,
2013-05-22 22:26:00,59.1,58.0,29.94,ENE,67,0.0,1.0,96,0.02,,,0.08,weatherlink.com 1.10,2013-05-23 02:26:00,
2013-05-22 22:41:00,58.9,58.0,29.94,ENE,67,0.0,0.0,96,0.01,,,0.08,weatherlink.com 1.10,2013-05-23 02:41:00,
2013-05-22 22:56:00,59.1,58.0,29.92,NW,311,0.0,3.0,96,0.01,,,0.08,weatherlink.com 1.10,2013-05-23 02:56:00,
2013-05-22 23:11:00,58.9,58.0,29.92,NW,311,0.0,1.0,96,0.01,,,0.09,weatherlink.com 1.10,2013-05-23 03:11:00,
2013-05-22 23:26:00,58.7,58.0,29.92,NW,311,0.0,0.0,96,0.02,,,0.10,weatherlink.com 1.10,2013-05-23 03:26:00,
2013-05-22 23:41:00,58.6,58.0,29.93,NW,311,0.0,2.0,96,0.02,,,0.10,weatherlink.com 1.10,2013-05-23 03:41:00,
2013-05-22 23:56:00,58.7,58.0,29.94,NW,311,0.0,1.0,96,0.01,,,0.10,weatherlink.com 1.10,2013-05-23 03:56:00,